sensor_id;sensor_type;location;lat;lon;timestamp;P1;durP1;ratioP1;P2;durP2;ratioP2
37891;SDS011;45797;47.466;9.486;2023-04-24T00:02:26;0.93;;;0.45;;
37891;SDS011;45797;47.466;9.486;2023-04-24T00:07:26;0.75;;;0.40;;
37891;SDS011;45797;47.466;9.486;2023-04-24T00:12:26;0.95;;;0.40;;
37891;SDS011;45797;47.466;9.486;2023-04-24T00:17:27;0.65;;;0.40;;
37891;SDS011;45797;47.466;9.486;2023-04-24T00:22:27;0.63;;;0.45;;
37891;SDS011;45797;47.466;9.486;2023-04-24T00:27:28;1.13;;;0.50;;
37891;SDS011;45797;47.466;9.486;2023-04-24T00:32:28;1.50;;;0.50;;
37891;SDS011;45797;47.466;9.486;2023-04-24T00:37:28;0.93;;;0.50;;
37891;SDS011;45797;47.466;9.486;2023-04-24T00:42:29;0.38;;;0.30;;
37891;SDS011;45797;47.466;9.486;2023-04-24T00:47:29;0.95;;;0.40;;
37891;SDS011;45797;47.466;9.486;2023-04-24T00:52:29;1.35;;;0.50;;
37891;SDS011;45797;47.466;9.486;2023-04-24T00:57:31;1.30;;;0.50;;
37891;SDS011;45797;47.466;9.486;2023-04-24T01:02:31;1.17;;;0.50;;
37891;SDS011;45797;47.466;9.486;2023-04-24T01:07:34;1.70;;;0.65;;
37891;SDS011;45797;47.466;9.486;2023-04-24T01:12:35;0.98;;;0.50;;
37891;SDS011;45797;47.466;9.486;2023-04-24T01:17:36;1.13;;;0.40;;
37891;SDS011;45797;47.466;9.486;2023-04-24T01:22:38;1.00;;;0.40;;
37891;SDS011;45797;47.466;9.486;2023-04-24T01:27:38;1.08;;;0.50;;
37891;SDS011;45797;47.466;9.486;2023-04-24T01:32:38;1.27;;;0.50;;
37891;SDS011;45797;47.466;9.486;2023-04-24T01:37:40;1.05;;;0.40;;
37891;SDS011;45797;47.466;9.486;2023-04-24T01:42:40;0.60;;;0.40;;
37891;SDS011;45797;47.466;9.486;2023-04-24T01:47:41;1.30;;;0.50;;
37891;SDS011;45797;47.466;9.486;2023-04-24T01:52:41;1.27;;;0.40;;
37891;SDS011;45797;47.466;9.486;2023-04-24T01:57:43;0.80;;;0.40;;
37891;SDS011;45797;47.466;9.486;2023-04-24T02:02:43;0.93;;;0.50;;
37891;SDS011;45797;47.466;9.486;2023-04-24T02:07:44;0.60;;;0.38;;
37891;SDS011;45797;47.466;9.486;2023-04-24T02:12:45;0.60;;;0.40;;
37891;SDS011;45797;47.466;9.486;2023-04-24T02:17:45;0.40;;;0.40;;
37891;SDS011;45797;47.466;9.486;2023-04-24T02:22:45;0.30;;;0.30;;
37891;SDS011;45797;47.466;9.486;2023-04-24T02:27:45;0.43;;;0.30;;
37891;SDS011;45797;47.466;9.486;2023-04-24T02:32:45;4.90;;;0.40;;
37891;SDS011;45797;47.466;9.486;2023-04-24T02:37:45;0.30;;;0.30;;
37891;SDS011;45797;47.466;9.486;2023-04-24T02:42:46;0.75;;;0.40;;
37891;SDS011;45797;47.466;9.486;2023-04-24T02:47:46;0.55;;;0.40;;
37891;SDS011;45797;47.466;9.486;2023-04-24T02:52:46;0.70;;;0.40;;
37891;SDS011;45797;47.466;9.486;2023-04-24T02:57:46;0.35;;;0.35;;
37891;SDS011;45797;47.466;9.486;2023-04-24T03:02:46;0.80;;;0.43;;
37891;SDS011;45797;47.466;9.486;2023-04-24T03:07:46;0.63;;;0.40;;
37891;SDS011;45797;47.466;9.486;2023-04-24T03:12:47;0.60;;;0.40;;
37891;SDS011;45797;47.466;9.486;2023-04-24T03:17:47;1.10;;;0.55;;
37891;SDS011;45797;47.466;9.486;2023-04-24T03:22:47;1.30;;;0.52;;
37891;SDS011;45797;47.466;9.486;2023-04-24T03:27:47;1.00;;;0.60;;
37891;SDS011;45797;47.466;9.486;2023-04-24T03:33:01;1.85;;;0.50;;
37891;SDS011;45797;47.466;9.486;2023-04-24T03:38:05;1.00;;;0.50;;
37891;SDS011;45797;47.466;9.486;2023-04-24T03:43:21;0.93;;;0.57;;
37891;SDS011;45797;47.466;9.486;2023-04-24T03:48:21;0.68;;;0.47;;
37891;SDS011;45797;47.466;9.486;2023-04-24T03:53:24;2.13;;;0.40;;
37891;SDS011;45797;47.466;9.486;2023-04-24T03:58:25;0.82;;;0.50;;
37891;SDS011;45797;47.466;9.486;2023-04-24T04:03:27;0.80;;;0.50;;
37891;SDS011;45797;47.466;9.486;2023-04-24T04:08:27;0.80;;;0.40;;
37891;SDS011;45797;47.466;9.486;2023-04-24T04:13:27;0.43;;;0.38;;
37891;SDS011;45797;47.466;9.486;2023-04-24T04:18:27;1.02;;;0.50;;
37891;SDS011;45797;47.466;9.486;2023-04-24T04:23:28;0.68;;;0.60;;
37891;SDS011;45797;47.466;9.486;2023-04-24T04:28:39;0.30;;;0.30;;
37891;SDS011;45797;47.466;9.486;2023-04-24T04:33:39;0.98;;;0.52;;
37891;SDS011;45797;47.466;9.486;2023-04-24T04:38:41;0.60;;;0.40;;
37891;SDS011;45797;47.466;9.486;2023-04-24T04:43:53;0.63;;;0.43;;
37891;SDS011;45797;47.466;9.486;2023-04-24T04:48:54;0.75;;;0.43;;
37891;SDS011;45797;47.466;9.486;2023-04-24T04:53:54;0.60;;;0.40;;
37891;SDS011;45797;47.466;9.486;2023-04-24T04:58:55;0.52;;;0.30;;
37891;SDS011;45797;47.466;9.486;2023-04-24T05:03:55;0.70;;;0.50;;
37891;SDS011;45797;47.466;9.486;2023-04-24T05:08:55;0.93;;;0.40;;
37891;SDS011;45797;47.466;9.486;2023-04-24T05:14:08;0.40;;;0.30;;
37891;SDS011;45797;47.466;9.486;2023-04-24T05:19:10;0.75;;;0.40;;
37891;SDS011;45797;47.466;9.486;2023-04-24T05:24:14;0.45;;;0.40;;
37891;SDS011;45797;47.466;9.486;2023-04-24T05:29:33;0.52;;;0.38;;
37891;SDS011;45797;47.466;9.486;2023-04-24T05:34:33;0.85;;;0.50;;
37891;SDS011;45797;47.466;9.486;2023-04-24T05:39:33;0.68;;;0.40;;
37891;SDS011;45797;47.466;9.486;2023-04-24T05:44:35;1.67;;;0.60;;
37891;SDS011;45797;47.466;9.486;2023-04-24T05:49:35;0.77;;;0.40;;
37891;SDS011;45797;47.466;9.486;2023-04-24T05:54:35;0.38;;;0.32;;
37891;SDS011;45797;47.466;9.486;2023-04-24T05:59:37;0.30;;;0.30;;
37891;SDS011;45797;47.466;9.486;2023-04-24T06:04:41;0.30;;;0.30;;
37891;SDS011;45797;47.466;9.486;2023-04-24T06:09:41;0.80;;;0.50;;
37891;SDS011;45797;47.466;9.486;2023-04-24T06:14:42;1.63;;;0.50;;
37891;SDS011;45797;47.466;9.486;2023-04-24T06:19:50;0.60;;;0.45;;
37891;SDS011;45797;47.466;9.486;2023-04-24T06:24:52;0.98;;;0.60;;
37891;SDS011;45797;47.466;9.486;2023-04-24T06:29:52;1.65;;;0.70;;
37891;SDS011;45797;47.466;9.486;2023-04-24T06:34:54;1.08;;;0.60;;
37891;SDS011;45797;47.466;9.486;2023-04-24T06:39:55;1.50;;;0.73;;
37891;SDS011;45797;47.466;9.486;2023-04-24T06:44:55;1.85;;;0.90;;
37891;SDS011;45797;47.466;9.486;2023-04-24T06:49:55;1.58;;;0.73;;
37891;SDS011;45797;47.466;9.486;2023-04-24T06:54:59;1.92;;;0.70;;
37891;SDS011;45797;47.466;9.486;2023-04-24T07:00:00;3.15;;;0.90;;
37891;SDS011;45797;47.466;9.486;2023-04-24T07:05:01;0.90;;;0.50;;
37891;SDS011;45797;47.466;9.486;2023-04-24T07:10:01;0.95;;;0.50;;
37891;SDS011;45797;47.466;9.486;2023-04-24T07:15:04;1.23;;;0.60;;
37891;SDS011;45797;47.466;9.486;2023-04-24T07:20:05;1.73;;;0.60;;
37891;SDS011;45797;47.466;9.486;2023-04-24T07:25:08;1.27;;;0.52;;
37891;SDS011;45797;47.466;9.486;2023-04-24T07:30:09;0.50;;;0.38;;
37891;SDS011;45797;47.466;9.486;2023-04-24T07:35:09;0.73;;;0.40;;
37891;SDS011;45797;47.466;9.486;2023-04-24T07:40:10;0.47;;;0.40;;
37891;SDS011;45797;47.466;9.486;2023-04-24T07:45:10;2.13;;;0.40;;
37891;SDS011;45797;47.466;9.486;2023-04-24T07:50:11;1.17;;;0.50;;
37891;SDS011;45797;47.466;9.486;2023-04-24T07:55:12;0.77;;;0.40;;
37891;SDS011;45797;47.466;9.486;2023-04-24T08:00:12;1.38;;;0.40;;
37891;SDS011;45797;47.466;9.486;2023-04-24T08:05:13;2.38;;;0.70;;
37891;SDS011;45797;47.466;9.486;2023-04-24T08:10:13;1.65;;;0.77;;
37891;SDS011;45797;47.466;9.486;2023-04-24T08:15:13;1.05;;;0.52;;
37891;SDS011;45797;47.466;9.486;2023-04-24T08:20:13;3.67;;;0.60;;
37891;SDS011;45797;47.466;9.486;2023-04-24T08:25:15;1.90;;;0.90;;
37891;SDS011;45797;47.466;9.486;2023-04-24T08:30:15;1.48;;;0.80;;
37891;SDS011;45797;47.466;9.486;2023-04-24T08:35:16;1.40;;;0.70;;
37891;SDS011;45797;47.466;9.486;2023-04-24T08:40:16;1.58;;;0.70;;
37891;SDS011;45797;47.466;9.486;2023-04-24T08:45:16;1.42;;;0.70;;
37891;SDS011;45797;47.466;9.486;2023-04-24T08:50:16;1.80;;;0.80;;
37891;SDS011;45797;47.466;9.486;2023-04-24T08:55:17;2.20;;;0.90;;
37891;SDS011;45797;47.466;9.486;2023-04-24T09:00:18;1.38;;;0.60;;
37891;SDS011;45797;47.466;9.486;2023-04-24T09:05:21;1.63;;;0.80;;
37891;SDS011;45797;47.466;9.486;2023-04-24T09:10:24;1.83;;;0.90;;
37891;SDS011;45797;47.466;9.486;2023-04-24T09:15:25;2.25;;;1.05;;
37891;SDS011;45797;47.466;9.486;2023-04-24T09:20:26;1.80;;;0.88;;
37891;SDS011;45797;47.466;9.486;2023-04-24T09:25:33;1.77;;;0.85;;
37891;SDS011;45797;47.466;9.486;2023-04-24T09:30:35;4.38;;;1.05;;
37891;SDS011;45797;47.466;9.486;2023-04-24T09:35:35;3.10;;;1.20;;
37891;SDS011;45797;47.466;9.486;2023-04-24T09:40:35;2.05;;;0.93;;
37891;SDS011;45797;47.466;9.486;2023-04-24T09:45:36;2.45;;;1.10;;
37891;SDS011;45797;47.466;9.486;2023-04-24T09:50:37;3.35;;;1.30;;
37891;SDS011;45797;47.466;9.486;2023-04-24T09:55:42;3.28;;;1.50;;
37891;SDS011;45797;47.466;9.486;2023-04-24T10:00:45;4.22;;;1.30;;
37891;SDS011;45797;47.466;9.486;2023-04-24T10:05:46;5.00;;;1.48;;
37891;SDS011;45797;47.466;9.486;2023-04-24T10:10:47;2.85;;;1.30;;
37891;SDS011;45797;47.466;9.486;2023-04-24T10:15:47;2.70;;;1.20;;
37891;SDS011;45797;47.466;9.486;2023-04-24T10:20:48;2.80;;;1.52;;
37891;SDS011;45797;47.466;9.486;2023-04-24T10:25:49;3.13;;;1.70;;
37891;SDS011;45797;47.466;9.486;2023-04-24T10:30:50;2.80;;;1.45;;
37891;SDS011;45797;47.466;9.486;2023-04-24T10:35:54;2.90;;;1.20;;
37891;SDS011;45797;47.466;9.486;2023-04-24T10:41:08;2.35;;;1.30;;
37891;SDS011;45797;47.466;9.486;2023-04-24T10:46:21;3.35;;;1.40;;
37891;SDS011;45797;47.466;9.486;2023-04-24T10:51:22;3.30;;;1.48;;
37891;SDS011;45797;47.466;9.486;2023-04-24T10:56:23;3.72;;;1.50;;
37891;SDS011;45797;47.466;9.486;2023-04-24T11:01:32;4.05;;;1.40;;
37891;SDS011;45797;47.466;9.486;2023-04-24T11:06:36;3.20;;;1.40;;
37891;SDS011;45797;47.466;9.486;2023-04-24T11:11:37;2.50;;;1.38;;
37891;SDS011;45797;47.466;9.486;2023-04-24T11:16:45;2.67;;;1.42;;
37891;SDS011;45797;47.466;9.486;2023-04-24T11:26:58;2.65;;;1.20;;
37891;SDS011;45797;47.466;9.486;2023-04-24T11:32:24;3.65;;;1.40;;
37891;SDS011;45797;47.466;9.486;2023-04-24T11:37:26;3.03;;;1.30;;
37891;SDS011;45797;47.466;9.486;2023-04-24T11:42:33;5.65;;;1.40;;
37891;SDS011;45797;47.466;9.486;2023-04-24T11:47:34;3.20;;;1.20;;
37891;SDS011;45797;47.466;9.486;2023-04-24T11:52:38;2.85;;;1.17;;
37891;SDS011;45797;47.466;9.486;2023-04-24T11:57:43;2.60;;;1.40;;
37891;SDS011;45797;47.466;9.486;2023-04-24T12:02:48;2.83;;;1.45;;
37891;SDS011;45797;47.466;9.486;2023-04-24T12:07:49;3.78;;;1.40;;
37891;SDS011;45797;47.466;9.486;2023-04-24T12:12:50;3.05;;;1.13;;
37891;SDS011;45797;47.466;9.486;2023-04-24T12:17:51;2.95;;;1.45;;
37891;SDS011;45797;47.466;9.486;2023-04-24T12:22:53;2.80;;;1.17;;
37891;SDS011;45797;47.466;9.486;2023-04-24T12:33:03;5.05;;;1.42;;
37891;SDS011;45797;47.466;9.486;2023-04-24T12:38:07;2.30;;;1.20;;
37891;SDS011;45797;47.466;9.486;2023-04-24T12:43:15;2.97;;;1.33;;
37891;SDS011;45797;47.466;9.486;2023-04-24T12:48:17;4.88;;;1.27;;
37891;SDS011;45797;47.466;9.486;2023-04-24T12:53:17;2.72;;;1.42;;
37891;SDS011;45797;47.466;9.486;2023-04-24T12:58:18;2.42;;;1.20;;
37891;SDS011;45797;47.466;9.486;2023-04-24T13:03:21;3.05;;;1.30;;
37891;SDS011;45797;47.466;9.486;2023-04-24T13:08:22;4.80;;;1.60;;
37891;SDS011;45797;47.466;9.486;2023-04-24T13:13:22;3.25;;;1.50;;
37891;SDS011;45797;47.466;9.486;2023-04-24T13:18:22;3.28;;;1.45;;
37891;SDS011;45797;47.466;9.486;2023-04-24T13:23:22;2.45;;;1.23;;
37891;SDS011;45797;47.466;9.486;2023-04-24T13:28:23;4.57;;;1.40;;
37891;SDS011;45797;47.466;9.486;2023-04-24T13:33:24;3.28;;;1.30;;
37891;SDS011;45797;47.466;9.486;2023-04-24T13:38:24;4.07;;;1.40;;
37891;SDS011;45797;47.466;9.486;2023-04-24T13:43:24;3.38;;;1.40;;
37891;SDS011;45797;47.466;9.486;2023-04-24T13:48:25;2.88;;;1.40;;
37891;SDS011;45797;47.466;9.486;2023-04-24T13:53:25;2.20;;;1.10;;
37891;SDS011;45797;47.466;9.486;2023-04-24T13:58:25;2.58;;;1.38;;
37891;SDS011;45797;47.466;9.486;2023-04-24T14:03:25;3.38;;;1.70;;
37891;SDS011;45797;47.466;9.486;2023-04-24T14:08:25;2.90;;;1.65;;
37891;SDS011;45797;47.466;9.486;2023-04-24T14:13:25;3.50;;;1.30;;
37891;SDS011;45797;47.466;9.486;2023-04-24T14:18:27;5.57;;;1.50;;
37891;SDS011;45797;47.466;9.486;2023-04-24T14:23:27;2.63;;;1.10;;
37891;SDS011;45797;47.466;9.486;2023-04-24T14:28:27;2.85;;;1.42;;
37891;SDS011;45797;47.466;9.486;2023-04-24T14:33:27;3.88;;;1.30;;
37891;SDS011;45797;47.466;9.486;2023-04-24T14:38:27;2.88;;;1.30;;
37891;SDS011;45797;47.466;9.486;2023-04-24T14:43:28;2.08;;;1.17;;
37891;SDS011;45797;47.466;9.486;2023-04-24T14:48:29;2.67;;;1.30;;
37891;SDS011;45797;47.466;9.486;2023-04-24T14:53:30;3.00;;;1.70;;
37891;SDS011;45797;47.466;9.486;2023-04-24T14:58:30;2.97;;;1.45;;
37891;SDS011;45797;47.466;9.486;2023-04-24T15:03:30;4.22;;;1.30;;
37891;SDS011;45797;47.466;9.486;2023-04-24T15:08:30;3.45;;;1.08;;
37891;SDS011;45797;47.466;9.486;2023-04-24T15:13:30;2.90;;;1.40;;
37891;SDS011;45797;47.466;9.486;2023-04-24T15:18:31;3.13;;;1.45;;
37891;SDS011;45797;47.466;9.486;2023-04-24T15:23:31;3.13;;;1.33;;
37891;SDS011;45797;47.466;9.486;2023-04-24T15:28:31;3.05;;;1.35;;
37891;SDS011;45797;47.466;9.486;2023-04-24T15:33:31;4.13;;;1.40;;
37891;SDS011;45797;47.466;9.486;2023-04-24T15:38:31;2.95;;;1.50;;
37891;SDS011;45797;47.466;9.486;2023-04-24T15:43:32;4.18;;;1.60;;
37891;SDS011;45797;47.466;9.486;2023-04-24T15:48:33;2.90;;;1.50;;
37891;SDS011;45797;47.466;9.486;2023-04-24T15:53:34;3.38;;;1.50;;
37891;SDS011;45797;47.466;9.486;2023-04-24T15:58:34;3.10;;;1.40;;
37891;SDS011;45797;47.466;9.486;2023-04-24T16:03:34;2.65;;;1.48;;
37891;SDS011;45797;47.466;9.486;2023-04-24T16:08:34;2.45;;;1.38;;
37891;SDS011;45797;47.466;9.486;2023-04-24T16:13:35;3.17;;;1.30;;
37891;SDS011;45797;47.466;9.486;2023-04-24T16:18:35;3.47;;;1.70;;
37891;SDS011;45797;47.466;9.486;2023-04-24T16:23:35;2.67;;;1.50;;
37891;SDS011;45797;47.466;9.486;2023-04-24T16:28:35;2.78;;;1.48;;
37891;SDS011;45797;47.466;9.486;2023-04-24T16:33:35;2.83;;;1.27;;
37891;SDS011;45797;47.466;9.486;2023-04-24T16:38:37;5.25;;;1.67;;
37891;SDS011;45797;47.466;9.486;2023-04-24T16:43:37;2.85;;;1.48;;
37891;SDS011;45797;47.466;9.486;2023-04-24T16:48:37;3.83;;;1.58;;
37891;SDS011;45797;47.466;9.486;2023-04-24T16:53:38;3.35;;;1.83;;
37891;SDS011;45797;47.466;9.486;2023-04-24T16:58:38;2.88;;;1.20;;
37891;SDS011;45797;47.466;9.486;2023-04-24T17:03:38;3.10;;;1.58;;
37891;SDS011;45797;47.466;9.486;2023-04-24T17:08:38;2.42;;;1.35;;
37891;SDS011;45797;47.466;9.486;2023-04-24T17:13:39;2.50;;;1.35;;
37891;SDS011;45797;47.466;9.486;2023-04-24T17:18:39;3.10;;;1.60;;
37891;SDS011;45797;47.466;9.486;2023-04-24T17:23:39;5.88;;;1.80;;
37891;SDS011;45797;47.466;9.486;2023-04-24T17:28:39;4.25;;;1.60;;
37891;SDS011;45797;47.466;9.486;2023-04-24T17:33:40;3.15;;;1.30;;
37891;SDS011;45797;47.466;9.486;2023-04-24T17:38:40;4.05;;;1.80;;
37891;SDS011;45797;47.466;9.486;2023-04-24T17:43:40;2.28;;;1.13;;
37891;SDS011;45797;47.466;9.486;2023-04-24T17:48:41;2.95;;;1.33;;
37891;SDS011;45797;47.466;9.486;2023-04-24T17:53:41;2.60;;;1.40;;
37891;SDS011;45797;47.466;9.486;2023-04-24T17:58:41;3.75;;;1.40;;
37891;SDS011;45797;47.466;9.486;2023-04-24T18:03:42;2.60;;;1.30;;
37891;SDS011;45797;47.466;9.486;2023-04-24T18:08:44;2.22;;;1.20;;
37891;SDS011;45797;47.466;9.486;2023-04-24T18:13:45;2.00;;;1.00;;
37891;SDS011;45797;47.466;9.486;2023-04-24T18:18:45;3.22;;;1.10;;
37891;SDS011;45797;47.466;9.486;2023-04-24T18:23:45;3.20;;;1.10;;
37891;SDS011;45797;47.466;9.486;2023-04-24T18:28:45;2.72;;;1.17;;
37891;SDS011;45797;47.466;9.486;2023-04-24T18:33:46;2.97;;;1.40;;
37891;SDS011;45797;47.466;9.486;2023-04-24T18:38:46;3.22;;;1.27;;
37891;SDS011;45797;47.466;9.486;2023-04-24T18:43:46;3.17;;;1.50;;
37891;SDS011;45797;47.466;9.486;2023-04-24T18:48:47;2.95;;;1.30;;
37891;SDS011;45797;47.466;9.486;2023-04-24T18:53:47;3.10;;;1.30;;
37891;SDS011;45797;47.466;9.486;2023-04-24T18:58:47;3.35;;;1.40;;
37891;SDS011;45797;47.466;9.486;2023-04-24T19:03:48;2.55;;;1.25;;
37891;SDS011;45797;47.466;9.486;2023-04-24T19:08:48;4.13;;;1.70;;
37891;SDS011;45797;47.466;9.486;2023-04-24T19:13:49;3.75;;;1.40;;
37891;SDS011;45797;47.466;9.486;2023-04-24T19:18:49;2.92;;;1.30;;
37891;SDS011;45797;47.466;9.486;2023-04-24T19:23:50;4.00;;;1.58;;
37891;SDS011;45797;47.466;9.486;2023-04-24T19:28:51;3.17;;;1.30;;
37891;SDS011;45797;47.466;9.486;2023-04-24T19:33:52;2.95;;;1.20;;
37891;SDS011;45797;47.466;9.486;2023-04-24T19:38:52;2.22;;;1.13;;
37891;SDS011;45797;47.466;9.486;2023-04-24T19:43:52;3.88;;;1.80;;
37891;SDS011;45797;47.466;9.486;2023-04-24T19:48:53;3.63;;;1.60;;
37891;SDS011;45797;47.466;9.486;2023-04-24T19:53:53;8.75;;;1.52;;
37891;SDS011;45797;47.466;9.486;2023-04-24T19:58:53;3.35;;;1.48;;
37891;SDS011;45797;47.466;9.486;2023-04-24T20:03:53;3.33;;;1.50;;
37891;SDS011;45797;47.466;9.486;2023-04-24T20:08:53;3.08;;;1.48;;
37891;SDS011;45797;47.466;9.486;2023-04-24T20:13:53;3.28;;;1.42;;
37891;SDS011;45797;47.466;9.486;2023-04-24T20:18:55;3.00;;;1.52;;
37891;SDS011;45797;47.466;9.486;2023-04-24T20:23:55;2.72;;;1.40;;
37891;SDS011;45797;47.466;9.486;2023-04-24T20:28:55;2.53;;;1.30;;
37891;SDS011;45797;47.466;9.486;2023-04-24T20:33:55;3.58;;;1.33;;
37891;SDS011;45797;47.466;9.486;2023-04-24T20:38:55;2.95;;;1.50;;
37891;SDS011;45797;47.466;9.486;2023-04-24T20:43:56;6.55;;;1.75;;
37891;SDS011;45797;47.466;9.486;2023-04-24T20:48:57;4.43;;;1.88;;
37891;SDS011;45797;47.466;9.486;2023-04-24T20:53:57;6.18;;;1.80;;
37891;SDS011;45797;47.466;9.486;2023-04-24T20:58:57;3.80;;;1.50;;
37891;SDS011;45797;47.466;9.486;2023-04-24T21:03:57;4.18;;;1.63;;
37891;SDS011;45797;47.466;9.486;2023-04-24T21:08:57;4.60;;;1.60;;
37891;SDS011;45797;47.466;9.486;2023-04-24T21:13:58;7.07;;;1.52;;
37891;SDS011;45797;47.466;9.486;2023-04-24T21:18:58;3.70;;;1.83;;
37891;SDS011;45797;47.466;9.486;2023-04-24T21:23:58;4.35;;;1.67;;
37891;SDS011;45797;47.466;9.486;2023-04-24T21:29:00;4.65;;;2.00;;
37891;SDS011;45797;47.466;9.486;2023-04-24T21:34:00;5.05;;;1.70;;
37891;SDS011;45797;47.466;9.486;2023-04-24T21:39:00;4.90;;;1.60;;
37891;SDS011;45797;47.466;9.486;2023-04-24T21:44:00;3.10;;;1.50;;
37891;SDS011;45797;47.466;9.486;2023-04-24T21:49:01;3.47;;;1.80;;
37891;SDS011;45797;47.466;9.486;2023-04-24T21:54:01;3.42;;;1.70;;
37891;SDS011;45797;47.466;9.486;2023-04-24T21:59:01;4.15;;;1.88;;
37891;SDS011;45797;47.466;9.486;2023-04-24T22:04:02;3.65;;;1.80;;
37891;SDS011;45797;47.466;9.486;2023-04-24T22:09:03;3.55;;;1.60;;
37891;SDS011;45797;47.466;9.486;2023-04-24T22:14:04;3.50;;;1.80;;
37891;SDS011;45797;47.466;9.486;2023-04-24T22:19:05;4.78;;;1.60;;
37891;SDS011;45797;47.466;9.486;2023-04-24T22:24:06;2.90;;;1.50;;
37891;SDS011;45797;47.466;9.486;2023-04-24T22:29:07;3.47;;;1.80;;
37891;SDS011;45797;47.466;9.486;2023-04-24T22:34:07;2.92;;;1.52;;
37891;SDS011;45797;47.466;9.486;2023-04-24T22:39:08;3.00;;;1.40;;
37891;SDS011;45797;47.466;9.486;2023-04-24T22:44:09;3.03;;;1.67;;
37891;SDS011;45797;47.466;9.486;2023-04-24T22:49:10;3.65;;;1.60;;
37891;SDS011;45797;47.466;9.486;2023-04-24T22:54:10;2.97;;;1.48;;
37891;SDS011;45797;47.466;9.486;2023-04-24T22:59:10;3.58;;;1.30;;
37891;SDS011;45797;47.466;9.486;2023-04-24T23:04:10;3.00;;;1.52;;
37891;SDS011;45797;47.466;9.486;2023-04-24T23:09:10;2.85;;;1.70;;
37891;SDS011;45797;47.466;9.486;2023-04-24T23:14:11;5.00;;;1.60;;
37891;SDS011;45797;47.466;9.486;2023-04-24T23:19:11;3.08;;;1.55;;
37891;SDS011;45797;47.466;9.486;2023-04-24T23:24:11;2.78;;;1.60;;
37891;SDS011;45797;47.466;9.486;2023-04-24T23:29:12;3.53;;;1.60;;
37891;SDS011;45797;47.466;9.486;2023-04-24T23:34:13;3.47;;;1.67;;
37891;SDS011;45797;47.466;9.486;2023-04-24T23:39:15;4.03;;;1.80;;
37891;SDS011;45797;47.466;9.486;2023-04-24T23:44:15;3.40;;;1.50;;
37891;SDS011;45797;47.466;9.486;2023-04-24T23:49:15;2.65;;;1.38;;
37891;SDS011;45797;47.466;9.486;2023-04-24T23:54:15;4.70;;;1.65;;
37891;SDS011;45797;47.466;9.486;2023-04-24T23:59:16;3.45;;;1.52;;
